Terminal Aerodrome Forecast
Issued by NWS

Home | Current Version | Previous Version | Text Only | Print | Product List | Glossary On
Versions: 1 2 3 4 5 6 7 8 9 10 11 12 13 14 15 16 17 18 19 20 21 22 23 24 25 26 27 28 29 30 31 32 33
000
FTUS43 KDLH 121126
TAFHIB
TAF
KHIB 121126Z 1212/1312 31005KT P6SM BKN009
     FM121500 29005KT P6SM SCT010 BKN150
     FM121800 28005KT P6SM SCT025 BKN050
     FM122200 19004KT P6SM BKN035
     FM130200 14006KT 4SM -SN BKN015 OVC025
     FM130700 14005KT 4SM -SN OVC008=

USA.gov is the U.S. government's official web portal to all federal, state and local government web resources and services.